createdAt,value
2017-08-07T00:01:55.500Z,5.90
2017-08-07T00:04:21.621Z,6.13
2017-08-07T00:06:47.705Z,6.00
2017-08-07T00:09:13.792Z,7.67
2017-08-07T00:11:39.873Z,7.73
2017-08-07T00:14:05.921Z,6.97
2017-08-07T00:16:31.973Z,6.30
2017-08-07T00:18:58.301Z,6.50
2017-08-07T00:21:24.361Z,6.83
2017-08-07T00:23:52.009Z,6.27
2017-08-07T00:26:18.072Z,5.50
2017-08-07T00:28:45.074Z,6.70
2017-08-07T00:31:11.140Z,6.00
2017-08-07T00:33:37.478Z,6.50
2017-08-07T00:36:03.531Z,6.43
2017-08-07T00:38:29.627Z,7.53
2017-08-07T00:40:55.722Z,6.73
2017-08-07T00:43:22.534Z,7.17
2017-08-07T00:45:48.588Z,6.67
2017-08-07T00:48:15.742Z,6.80
2017-08-07T00:50:41.806Z,6.33
2017-08-07T00:53:07.856Z,7.70
2017-08-07T00:55:33.940Z,6.90
2017-08-07T00:58:00.000Z,6.00
2017-08-07T01:00:26.058Z,6.00
2017-08-07T01:02:52.864Z,6.67
2017-08-07T01:05:18.920Z,6.50
2017-08-07T01:07:45.760Z,6.40
2017-08-07T01:10:12.614Z,7.30
2017-08-07T01:12:39.453Z,7.43
2017-08-07T01:15:06.296Z,6.53
2017-08-07T01:17:33.126Z,7.20
2017-08-07T01:19:59.196Z,6.70
2017-08-07T01:22:25.289Z,6.33
2017-08-07T01:24:52.445Z,7.20
2017-08-07T01:27:18.533Z,5.93
2017-08-07T01:29:44.621Z,6.50
2017-08-07T01:32:10.721Z,6.60
2017-08-07T01:34:37.519Z,6.10
2017-08-07T01:37:03.567Z,6.30
2017-08-07T01:39:29.658Z,6.10
2017-08-07T01:41:55.710Z,6.77
2017-08-07T01:44:21.864Z,7.00
2017-08-07T01:46:47.942Z,6.00
2017-08-07T01:49:13.996Z,7.20
2017-08-07T01:51:40.053Z,6.60
2017-08-07T01:54:06.136Z,6.10
2017-08-07T01:56:32.204Z,6.30
2017-08-07T01:58:58.248Z,6.87
2017-08-07T02:01:24.545Z,6.20
2017-08-07T02:03:50.627Z,6.57
2017-08-07T02:06:16.690Z,6.73
2017-08-07T02:08:42.875Z,7.20
2017-08-07T02:11:08.966Z,7.27
2017-08-07T02:13:35.060Z,7.37
2017-08-07T02:16:01.901Z,7.70
2017-08-07T02:18:28.700Z,6.83
2017-08-07T02:20:54.779Z,6.90
2017-08-07T02:23:20.899Z,7.13
2017-08-07T02:25:47.683Z,7.57
2017-08-07T02:28:13.724Z,7.60
2017-08-07T02:30:39.790Z,7.20
2017-08-07T02:33:05.842Z,6.43
2017-08-07T02:35:31.905Z,7.30
2017-08-07T02:37:58.008Z,7.60
2017-08-07T02:40:24.056Z,6.70
2017-08-07T02:42:50.095Z,7.20
2017-08-07T02:45:16.250Z,6.50
2017-08-07T02:47:42.301Z,6.60
2017-08-07T02:50:08.421Z,7.23
2017-08-07T02:52:34.705Z,6.40
2017-08-07T02:55:01.498Z,7.07
2017-08-07T02:57:27.536Z,7.53
2017-08-07T02:59:53.631Z,7.27
2017-08-07T03:02:19.688Z,6.90
2017-08-07T03:04:45.744Z,7.50
2017-08-07T03:07:12.798Z,8.20
2017-08-07T03:09:39.611Z,7.83
2017-08-07T03:12:05.751Z,8.00
2017-08-07T03:14:31.829Z,7.60
2017-08-07T03:16:57.938Z,7.53
2017-08-07T03:19:24.007Z,7.73
2017-08-07T03:21:50.217Z,7.50
2017-08-07T03:24:16.280Z,7.47
2017-08-07T03:26:42.376Z,6.60
2017-08-07T03:29:08.645Z,7.20
2017-08-07T03:31:35.430Z,7.07
2017-08-07T03:34:01.468Z,7.80
2017-08-07T03:36:27.585Z,8.07
2017-08-07T03:38:53.653Z,8.00
2017-08-07T03:41:19.708Z,6.93
2017-08-07T03:43:46.011Z,7.27
2017-08-07T03:46:12.846Z,7.77
2017-08-07T03:48:39.945Z,7.70
2017-08-07T03:51:06.047Z,8.70
2017-08-07T03:53:32.099Z,8.10
2017-08-07T03:55:58.154Z,8.30
2017-08-07T03:58:24.232Z,7.93
2017-08-07T04:00:50.302Z,8.60
2017-08-07T04:03:16.356Z,7.80
2017-08-07T04:05:43.183Z,6.93
2017-08-07T04:08:09.254Z,7.83
2017-08-07T04:10:35.310Z,8.20
2017-08-07T04:13:01.396Z,8.27
2017-08-07T04:15:27.462Z,8.63
2017-08-07T04:17:54.616Z,8.97
2017-08-07T04:20:20.814Z,9.00
2017-08-07T04:22:46.871Z,8.13
2017-08-07T04:25:12.920Z,7.33
2017-08-07T04:27:39.732Z,7.80
2017-08-07T04:30:05.794Z,7.90
2017-08-07T04:32:31.842Z,7.60
2017-08-07T04:34:58.020Z,7.50
2017-08-07T04:37:24.089Z,7.40
2017-08-07T04:39:50.174Z,7.60
2017-08-07T04:42:17.097Z,7.70
2017-08-07T04:44:43.151Z,7.70
2017-08-07T04:47:09.936Z,7.00
2017-08-07T04:49:36.036Z,8.17
2017-08-07T04:52:02.121Z,7.80
2017-08-07T04:54:28.182Z,7.87
2017-08-07T04:56:54.404Z,7.27
2017-08-07T04:59:20.470Z,7.60
2017-08-07T05:01:46.523Z,7.57
2017-08-07T05:04:12.605Z,7.80
2017-08-07T05:06:38.659Z,8.57
2017-08-07T05:09:05.453Z,8.20
2017-08-07T05:11:31.665Z,6.57
2017-08-07T05:13:57.723Z,6.63
2017-08-07T05:16:23.765Z,6.60
2017-08-07T05:18:49.970Z,6.07
2017-08-07T05:21:16.037Z,6.10
2017-08-07T05:23:42.077Z,6.40
2017-08-07T05:26:08.358Z,6.23
2017-08-07T05:28:35.146Z,6.10
2017-08-07T05:31:01.202Z,7.13
2017-08-07T05:33:27.289Z,6.30
2017-08-07T05:35:53.322Z,5.80
2017-08-07T05:38:19.357Z,6.00
2017-08-07T05:40:45.591Z,6.60
2017-08-07T05:43:11.640Z,6.50
2017-08-07T05:45:37.698Z,5.63
2017-08-07T05:48:03.778Z,5.43
2017-08-07T05:50:29.844Z,5.07
2017-08-07T05:52:55.898Z,5.00
2017-08-07T05:55:21.975Z,5.47
2017-08-07T05:57:48.787Z,3.77
2017-08-07T06:00:14.842Z,5.53
2017-08-07T06:02:41.649Z,6.17
2017-08-07T06:05:07.706Z,6.93
2017-08-07T06:07:33.773Z,7.27
2017-08-07T06:09:59.836Z,4.90
2017-08-07T06:12:25.901Z,4.83
2017-08-07T06:14:51.956Z,4.97
2017-08-07T06:17:18.146Z,8.00
2017-08-07T06:19:44.193Z,4.57
2017-08-07T06:22:10.258Z,13.07
2017-08-07T06:24:36.493Z,4.80
2017-08-07T06:27:03.358Z,7.90
2017-08-07T06:29:29.412Z,4.20
2017-08-07T06:31:55.485Z,5.23
2017-08-07T06:34:21.550Z,4.17
2017-08-07T06:36:47.656Z,3.60
2017-08-07T06:39:13.752Z,3.97
2017-08-07T06:41:39.833Z,3.10
2017-08-07T06:44:05.985Z,3.37
2017-08-07T06:46:32.120Z,3.43
2017-08-07T06:48:58.952Z,3.40
2017-08-07T06:51:25.051Z,4.80
2017-08-07T06:53:51.256Z,2.90
2017-08-07T06:56:17.337Z,2.97
2017-08-07T06:58:43.423Z,3.40
2017-08-07T07:01:09.627Z,3.13
2017-08-07T07:03:36.551Z,4.33
2017-08-07T07:06:02.609Z,2.70
2017-08-07T07:08:28.810Z,5.53
2017-08-07T07:10:55.598Z,4.23
2017-08-07T07:13:21.654Z,5.70
2017-08-07T07:15:47.924Z,2.93
2017-08-07T07:18:13.988Z,3.93
2017-08-07T07:20:40.077Z,3.10
2017-08-07T07:23:06.279Z,2.43
2017-08-07T07:25:32.365Z,3.97
2017-08-07T07:27:59.461Z,3.00
2017-08-07T07:30:25.575Z,2.90
2017-08-07T07:32:51.670Z,3.83
2017-08-07T07:35:18.483Z,6.33
2017-08-07T07:37:44.643Z,2.40
2017-08-07T07:40:10.792Z,3.00
2017-08-07T07:42:36.853Z,8.30
2017-08-07T07:45:02.937Z,3.63
2017-08-07T07:47:29.113Z,16.30
2017-08-07T07:49:55.148Z,4.70
2017-08-07T07:52:21.241Z,3.00
2017-08-07T07:54:47.355Z,4.10
2017-08-07T07:57:13.402Z,3.87
2017-08-07T07:59:39.597Z,2.10
2017-08-07T08:02:05.725Z,3.37
2017-08-07T08:04:31.818Z,5.00
2017-08-07T08:06:58.665Z,2.50
2017-08-07T08:09:25.478Z,2.93
2017-08-07T08:11:51.522Z,3.60
2017-08-07T08:14:17.620Z,2.00
2017-08-07T08:19:14.391Z,2.13
2017-08-07T08:21:40.630Z,2.97
2017-08-07T08:25:59.293Z,2.50
2017-08-07T08:29:36.514Z,2.90
2017-08-07T08:32:02.806Z,2.10
2017-08-07T08:34:29.155Z,4.00
2017-08-07T08:36:56.214Z,2.70
2017-08-07T08:39:22.517Z,2.20
2017-08-07T08:41:48.764Z,2.30
2017-08-07T08:44:15.047Z,2.10
2017-08-07T08:46:41.363Z,2.47
2017-08-07T08:49:07.663Z,4.37
2017-08-07T08:51:34.718Z,2.20
2017-08-07T08:54:00.985Z,1.93
2017-08-07T08:56:28.571Z,3.23
2017-08-07T08:58:55.076Z,2.57
2017-08-07T09:01:21.347Z,1.80
2017-08-07T09:03:47.667Z,2.60
2017-08-07T09:06:13.979Z,4.80
2017-08-07T09:08:40.236Z,4.30
2017-08-07T09:11:06.554Z,3.20
2017-08-07T09:13:32.832Z,3.00
2017-08-07T09:15:59.081Z,1.93
2017-08-07T09:18:25.376Z,2.43
2017-08-07T09:20:51.731Z,1.60
2017-08-07T09:23:17.980Z,2.67
2017-08-07T09:25:44.286Z,1.67
2017-08-07T09:28:10.629Z,2.03
2017-08-07T09:30:36.917Z,2.10
2017-08-07T09:33:03.181Z,1.40
2017-08-07T09:35:29.454Z,2.30
2017-08-07T09:37:55.764Z,1.57
2017-08-07T09:40:22.009Z,2.07
2017-08-07T09:42:48.307Z,1.50
2017-08-07T09:45:14.570Z,1.50
2017-08-07T09:47:40.879Z,2.50
2017-08-07T09:50:07.909Z,1.70
2017-08-07T09:52:34.166Z,2.30
2017-08-07T09:55:00.434Z,3.20
2017-08-07T09:57:26.758Z,3.30
2017-08-07T09:59:53.020Z,1.57
2017-08-07T10:02:19.302Z,2.03
2017-08-07T10:04:45.609Z,2.40
2017-08-07T10:07:11.915Z,4.20
2017-08-07T10:09:38.190Z,2.40
2017-08-07T10:12:04.468Z,1.90
2017-08-07T10:14:30.729Z,2.07
2017-08-07T10:16:57.030Z,2.27
2017-08-07T10:19:24.357Z,2.07
2017-08-07T10:21:50.614Z,4.53
2017-08-07T10:24:16.882Z,2.60
2017-08-07T10:26:43.168Z,2.90
2017-08-07T10:29:10.223Z,2.80
2017-08-07T10:31:36.640Z,2.73
2017-08-07T10:34:04.220Z,2.60
2017-08-07T10:36:30.563Z,2.23
2017-08-07T10:38:56.897Z,2.23
2017-08-07T10:41:23.221Z,5.00
2017-08-07T10:43:49.545Z,2.60
2017-08-07T10:46:15.859Z,4.20
2017-08-07T10:48:42.226Z,2.80
2017-08-07T10:51:08.555Z,2.50
2017-08-07T10:53:34.802Z,3.00
2017-08-07T10:56:01.131Z,2.70
2017-08-07T10:58:27.401Z,2.23
2017-08-07T11:00:53.713Z,3.40
2017-08-07T11:03:20.084Z,2.23
2017-08-07T11:05:46.397Z,2.30
2017-08-07T11:08:12.644Z,1.87
2017-08-07T11:10:39.742Z,1.73
2017-08-07T11:13:06.055Z,4.57
2017-08-07T11:15:32.454Z,3.70
2017-08-07T11:17:58.943Z,6.20
2017-08-07T11:20:25.213Z,1.93
2017-08-07T11:22:51.491Z,2.83
2017-08-07T11:25:18.581Z,2.43
2017-08-07T11:27:44.983Z,5.33
2017-08-07T11:30:11.389Z,1.80
2017-08-07T11:32:37.704Z,2.97
2017-08-07T11:35:03.994Z,2.40
2017-08-07T11:37:30.417Z,2.80
2017-08-07T11:39:57.873Z,2.30
2017-08-07T11:42:24.212Z,2.03
2017-08-07T11:44:50.544Z,2.73
2017-08-07T11:47:16.983Z,3.23
2017-08-07T11:49:43.434Z,2.20
2017-08-07T11:52:09.821Z,1.97
2017-08-07T11:54:36.144Z,2.40
2017-08-07T11:57:02.587Z,3.03
2017-08-07T11:59:30.048Z,2.60
2017-08-07T12:01:56.496Z,2.50
2017-08-07T12:04:22.975Z,1.60
2017-08-07T12:06:49.431Z,2.00
2017-08-07T12:09:15.921Z,7.13
2017-08-07T12:11:42.194Z,2.97
2017-08-07T12:14:10.233Z,2.27
2017-08-07T12:16:36.578Z,1.50
2017-08-07T12:19:02.870Z,2.77
2017-08-07T12:21:29.230Z,2.33
2017-08-07T12:23:55.724Z,1.70
2017-08-07T12:26:22.163Z,2.30
2017-08-07T12:28:49.064Z,3.30
2017-08-07T12:31:15.583Z,2.33
2017-08-07T12:33:42.059Z,1.67
2017-08-07T12:36:08.386Z,3.27
2017-08-07T12:38:34.893Z,1.80
2017-08-07T12:41:01.226Z,2.33
2017-08-07T12:43:27.681Z,5.33
2017-08-07T12:45:54.163Z,1.90
2017-08-07T12:48:20.559Z,2.80
2017-08-07T12:50:54.349Z,3.40
2017-08-07T12:53:20.822Z,4.67
2017-08-07T12:55:47.239Z,2.90
2017-08-07T12:58:13.588Z,1.37
2017-08-07T13:00:40.102Z,2.13
2017-08-07T13:03:06.545Z,2.63
2017-08-07T13:05:33.112Z,2.80
2017-08-07T13:08:00.537Z,2.80
2017-08-07T13:10:26.858Z,2.30
2017-08-07T13:12:54.073Z,2.90
2017-08-07T13:15:20.539Z,1.83
2017-08-07T13:17:46.950Z,3.00
2017-08-07T13:20:13.340Z,1.80
2017-08-07T13:22:39.628Z,2.30
2017-08-07T13:25:05.939Z,3.27
2017-08-07T13:27:32.381Z,5.37
2017-08-07T13:29:58.861Z,2.77
2017-08-07T13:32:25.143Z,1.80
2017-08-07T13:34:51.665Z,2.10
2017-08-07T13:37:18.067Z,1.93
2017-08-07T13:39:44.405Z,2.23
2017-08-07T13:42:10.885Z,1.90
2017-08-07T13:44:37.210Z,2.83
2017-08-07T13:47:03.480Z,2.43
2017-08-07T13:49:30.777Z,3.07
2017-08-07T13:51:57.150Z,2.83
2017-08-07T13:54:24.014Z,2.80
2017-08-07T13:56:51.133Z,2.30
2017-08-07T13:59:17.638Z,3.13
2017-08-07T14:01:43.949Z,9.43
2017-08-07T14:04:10.598Z,4.70
2017-08-07T14:06:37.921Z,2.30
2017-08-07T14:09:04.207Z,2.30
2017-08-07T14:11:30.658Z,1.90
2017-08-07T14:13:57.090Z,2.60
2017-08-07T14:16:23.515Z,2.93
2017-08-07T14:18:50.017Z,2.10
2017-08-07T14:21:23.527Z,2.83
2017-08-07T14:23:51.006Z,2.90
2017-08-07T14:26:17.449Z,2.40
2017-08-07T14:28:44.315Z,2.90
2017-08-07T14:31:10.895Z,2.50
2017-08-07T14:33:38.243Z,6.17
2017-08-07T14:36:05.709Z,4.70
2017-08-07T14:38:32.414Z,2.00
2017-08-07T14:40:59.721Z,1.53
2017-08-07T14:43:26.365Z,2.37
2017-08-07T14:45:54.011Z,2.23
2017-08-07T14:48:20.629Z,2.13
2017-08-07T14:50:47.058Z,3.10
2017-08-07T14:53:13.931Z,2.30
2017-08-07T14:55:40.436Z,3.00
2017-08-07T14:58:06.905Z,3.37
2017-08-07T15:00:33.520Z,3.47
2017-08-07T15:03:00.717Z,2.37
2017-08-07T15:05:28.038Z,2.30
2017-08-07T15:07:54.388Z,2.40
2017-08-07T15:10:20.971Z,2.80
2017-08-07T15:12:47.575Z,5.30
2017-08-07T15:15:14.061Z,2.20
2017-08-07T15:17:40.361Z,4.80
2017-08-07T15:20:06.943Z,1.63
2017-08-07T15:22:33.919Z,3.40
2017-08-07T15:25:01.248Z,1.83
2017-08-07T15:27:27.746Z,2.37
2017-08-07T15:29:54.155Z,2.10
2017-08-07T15:32:20.571Z,2.20
2017-08-07T15:34:46.911Z,3.10
2017-08-07T15:37:13.360Z,2.20
2017-08-07T15:39:39.766Z,3.13
2017-08-07T15:42:06.220Z,2.20
2017-08-07T15:44:33.560Z,1.90
2017-08-07T15:47:02.274Z,2.83
2017-08-07T15:49:29.451Z,2.67
2017-08-07T15:51:55.893Z,2.70
2017-08-07T15:54:22.289Z,2.60
2017-08-07T15:56:48.590Z,2.77
2017-08-07T15:59:15.048Z,1.90
2017-08-07T16:01:41.387Z,1.90
2017-08-07T16:04:07.788Z,2.30
2017-08-07T16:06:34.403Z,3.83
2017-08-07T16:09:01.570Z,2.33
2017-08-07T16:11:27.863Z,3.37
2017-08-07T16:13:54.228Z,3.30
2017-08-07T16:16:20.598Z,2.33
2017-08-07T16:18:46.948Z,4.23
2017-08-07T16:21:15.154Z,2.10
2017-08-07T16:23:41.446Z,2.87
2017-08-07T16:26:07.761Z,2.90
2017-08-07T16:28:35.370Z,3.00
2017-08-07T16:31:01.679Z,4.33
2017-08-07T16:33:28.800Z,3.07
2017-08-07T16:35:55.127Z,3.10
2017-08-07T16:38:21.566Z,3.23
2017-08-07T16:40:50.061Z,3.00
2017-08-07T16:43:16.395Z,2.43
2017-08-07T16:45:42.727Z,3.30
2017-08-07T16:48:09.784Z,3.17
2017-08-07T16:50:36.238Z,4.17
2017-08-07T16:53:03.251Z,5.47
2017-08-07T16:55:29.577Z,4.03
2017-08-07T16:57:56.952Z,3.53
2017-08-07T17:00:23.275Z,3.70
2017-08-07T17:02:49.673Z,2.80
2017-08-07T17:05:16.143Z,4.07
2017-08-07T17:07:42.545Z,3.50
2017-08-07T17:10:08.896Z,2.73
2017-08-07T17:12:35.222Z,5.33
2017-08-07T17:15:01.641Z,4.60
2017-08-07T17:17:27.970Z,5.33
2017-08-07T17:19:54.386Z,5.50
2017-08-07T17:22:20.664Z,4.30
2017-08-07T17:24:47.042Z,5.07
2017-08-07T17:27:13.469Z,4.40
2017-08-07T17:29:40.178Z,4.40
2017-08-07T17:32:06.437Z,4.47
2017-08-07T17:34:32.981Z,6.83
2017-08-07T17:36:59.324Z,6.13
2017-08-07T17:39:25.697Z,7.13
2017-08-07T17:41:52.084Z,3.60
2017-08-07T17:44:18.395Z,4.13
2017-08-07T17:46:44.668Z,7.73
2017-08-07T17:49:11.487Z,2.87
2017-08-07T17:51:37.871Z,5.83
2017-08-07T17:54:04.272Z,3.97
2017-08-07T17:56:30.599Z,5.40
2017-08-07T17:58:56.988Z,4.90
2017-08-07T18:01:23.291Z,5.27
2017-08-07T18:03:49.657Z,10.87
2017-08-07T18:06:15.975Z,6.43
2017-08-07T18:08:43.075Z,13.30
2017-08-07T18:11:09.556Z,9.50
2017-08-07T18:13:35.944Z,6.90
2017-08-07T18:16:02.307Z,7.53
2017-08-07T18:18:29.924Z,4.33
2017-08-07T18:20:56.346Z,10.57
2017-08-07T18:23:29.715Z,4.20
2017-08-07T18:25:55.991Z,4.53
2017-08-07T18:28:22.321Z,4.90
2017-08-07T18:30:48.680Z,6.00
2017-08-07T18:33:14.967Z,7.10
2017-08-07T18:35:42.110Z,4.40
2017-08-07T18:38:09.363Z,6.23
2017-08-07T18:40:35.658Z,7.90
2017-08-07T18:43:02.019Z,5.83
2017-08-07T18:45:28.371Z,9.20
2017-08-07T18:47:54.685Z,6.70
2017-08-07T18:50:21.014Z,9.40
2017-08-07T18:52:47.646Z,7.07
2017-08-07T18:55:13.930Z,8.10
2017-08-07T18:57:40.376Z,9.03
2017-08-07T19:00:06.838Z,15.20
2017-08-07T19:02:33.191Z,9.40
2017-08-07T19:04:59.566Z,8.13
2017-08-07T19:07:25.992Z,8.60
2017-08-07T19:09:53.121Z,7.97
2017-08-07T19:12:19.446Z,6.47
2017-08-07T19:14:45.869Z,8.87
2017-08-07T19:17:12.450Z,7.83
2017-08-07T19:19:39.148Z,7.20
2017-08-07T19:22:07.914Z,6.70
2017-08-07T19:24:35.390Z,8.40
2017-08-07T19:27:02.044Z,8.07
2017-08-07T19:29:28.603Z,10.43
2017-08-07T19:31:55.712Z,9.77
2017-08-07T19:34:22.059Z,10.20
2017-08-07T19:36:49.255Z,18.80
2017-08-07T19:39:15.631Z,11.93
2017-08-07T19:41:41.954Z,17.50
2017-08-07T19:44:08.255Z,17.47
2017-08-07T19:46:34.588Z,17.10
2017-08-07T19:49:01.674Z,13.60
2017-08-07T19:51:28.003Z,16.10
2017-08-07T19:53:54.327Z,19.97
2017-08-07T19:56:20.628Z,12.87
2017-08-07T19:58:46.907Z,11.83
2017-08-07T20:01:13.350Z,10.40
2017-08-07T20:03:40.417Z,11.50
2017-08-07T20:06:06.746Z,12.60
2017-08-07T20:08:33.093Z,9.70
2017-08-07T20:10:59.427Z,10.07
2017-08-07T20:13:25.770Z,12.40
2017-08-07T20:15:52.120Z,13.10
2017-08-07T20:18:18.425Z,13.73
2017-08-07T20:20:44.738Z,23.60
2017-08-07T20:23:11.825Z,11.30
2017-08-07T20:25:38.094Z,10.80
2017-08-07T20:28:04.526Z,11.10
2017-08-07T20:30:30.840Z,9.20
2017-08-07T20:32:58.002Z,11.57
2017-08-07T20:35:24.319Z,10.40
2017-08-07T20:37:51.665Z,10.50
2017-08-07T20:40:17.988Z,8.80
2017-08-07T20:42:44.292Z,9.00
2017-08-07T20:45:10.589Z,7.73
2017-08-07T20:47:36.898Z,10.00
2017-08-07T20:50:03.155Z,8.40
2017-08-07T20:52:29.468Z,8.57
2017-08-07T20:54:55.775Z,8.30
2017-08-07T20:57:22.062Z,8.93
2017-08-07T20:59:49.121Z,8.33
2017-08-07T21:02:15.386Z,9.10
2017-08-07T21:04:41.717Z,8.30
2017-08-07T21:07:08.773Z,10.90
2017-08-07T21:09:35.098Z,8.70
2017-08-07T21:12:01.433Z,8.87
2017-08-07T21:14:27.695Z,9.43
2017-08-07T21:16:54.059Z,8.17
2017-08-07T21:19:20.388Z,8.20
2017-08-07T21:21:46.668Z,8.80
2017-08-07T21:24:12.994Z,8.10
2017-08-07T21:26:39.601Z,11.10
2017-08-07T21:29:06.034Z,8.67
2017-08-07T21:31:32.314Z,10.47
2017-08-07T21:33:58.573Z,7.93
2017-08-07T21:36:24.873Z,7.00
2017-08-07T21:38:51.258Z,7.50
2017-08-07T21:41:17.567Z,7.80
2017-08-07T21:43:43.875Z,8.43
2017-08-07T21:46:10.238Z,8.40
2017-08-07T21:48:36.607Z,8.20
2017-08-07T21:51:02.901Z,8.20
2017-08-07T21:53:29.277Z,6.90
2017-08-07T21:55:55.545Z,6.90
2017-08-07T21:58:22.664Z,7.33
2017-08-07T22:00:49.181Z,7.80
2017-08-07T22:03:15.554Z,6.50
2017-08-07T22:05:43.872Z,8.43
2017-08-07T22:08:10.228Z,8.63
2017-08-07T22:10:36.616Z,7.40
2017-08-07T22:13:02.923Z,7.80
2017-08-07T22:15:29.960Z,7.13
2017-08-07T22:17:56.229Z,7.20
2017-08-07T22:20:22.522Z,8.10
2017-08-07T22:22:49.881Z,7.27
2017-08-07T22:25:17.226Z,9.70
2017-08-07T22:27:44.319Z,8.27
2017-08-07T22:30:10.799Z,7.83
2017-08-07T22:32:37.069Z,7.33
2017-08-07T22:35:03.446Z,6.63
2017-08-07T22:37:29.866Z,7.20
2017-08-07T22:39:56.128Z,6.37
2017-08-07T22:42:22.431Z,7.23
2017-08-07T22:44:48.960Z,7.37
2017-08-07T22:47:15.230Z,7.03
2017-08-07T22:49:41.514Z,6.47
2017-08-07T22:52:08.004Z,6.67
2017-08-07T22:54:35.036Z,8.53
2017-08-07T22:57:01.440Z,7.33
2017-08-07T22:59:28.560Z,7.00
2017-08-07T23:01:54.937Z,8.90
2017-08-07T23:04:21.334Z,7.23
2017-08-07T23:06:47.607Z,8.93
2017-08-07T23:09:13.880Z,6.63
2017-08-07T23:11:40.152Z,7.10
2017-08-07T23:14:06.470Z,6.83
2017-08-07T23:16:39.889Z,6.67
2017-08-07T23:19:06.194Z,7.30
2017-08-07T23:21:32.482Z,6.83
2017-08-07T23:23:58.834Z,7.63
2017-08-07T23:26:25.194Z,7.00
2017-08-07T23:28:51.492Z,7.93
2017-08-07T23:31:17.753Z,7.57
2017-08-07T23:33:44.074Z,8.27
2017-08-07T23:36:10.350Z,8.47
2017-08-07T23:38:37.348Z,7.83
2017-08-07T23:41:03.685Z,7.53
2017-08-07T23:43:29.996Z,7.33
2017-08-07T23:46:03.690Z,6.77
2017-08-07T23:48:30.004Z,6.93
2017-08-07T23:50:56.312Z,6.53
2017-08-07T23:53:23.257Z,6.90
2017-08-07T23:55:49.538Z,6.70
2017-08-07T23:58:15.802Z,7.43
